sensor_id;sensor_type;location;lat;lon;timestamp;P1;durP1;ratioP1;P2;durP2;ratioP2
1699;SDS011;847;48.058;7.810;2022-09-17T00:00:03;2.70;;;1.10;;
1699;SDS011;847;48.058;7.810;2022-09-17T00:02:30;4.80;;;1.20;;
1699;SDS011;847;48.058;7.810;2022-09-17T00:04:56;3.30;;;1.50;;
1699;SDS011;847;48.058;7.810;2022-09-17T00:07:23;1.50;;;1.20;;
1699;SDS011;847;48.058;7.810;2022-09-17T00:09:50;2.20;;;1.17;;
1699;SDS011;847;48.058;7.810;2022-09-17T00:12:16;1.77;;;1.20;;
1699;SDS011;847;48.058;7.810;2022-09-17T00:14:44;1.90;;;1.07;;
1699;SDS011;847;48.058;7.810;2022-09-17T00:17:11;2.73;;;1.10;;
1699;SDS011;847;48.058;7.810;2022-09-17T00:19:38;1.67;;;1.23;;
1699;SDS011;847;48.058;7.810;2022-09-17T00:22:05;2.33;;;1.07;;
1699;SDS011;847;48.058;7.810;2022-09-17T00:24:32;2.23;;;1.20;;
1699;SDS011;847;48.058;7.810;2022-09-17T00:26:58;2.70;;;0.80;;
1699;SDS011;847;48.058;7.810;2022-09-17T00:29:25;1.50;;;1.00;;
1699;SDS011;847;48.058;7.810;2022-09-17T00:31:53;3.70;;;1.10;;
1699;SDS011;847;48.058;7.810;2022-09-17T00:34:20;2.00;;;1.67;;
1699;SDS011;847;48.058;7.810;2022-09-17T00:36:46;1.50;;;1.00;;
1699;SDS011;847;48.058;7.810;2022-09-17T00:39:13;0.83;;;0.77;;
1699;SDS011;847;48.058;7.810;2022-09-17T00:41:40;1.73;;;1.30;;
1699;SDS011;847;48.058;7.810;2022-09-17T00:47:09;2.17;;;1.23;;
1699;SDS011;847;48.058;7.810;2022-09-17T00:49:40;3.87;;;1.10;;
1699;SDS011;847;48.058;7.810;2022-09-17T00:52:09;2.00;;;1.10;;
1699;SDS011;847;48.058;7.810;2022-09-17T00:54:40;2.00;;;1.00;;
1699;SDS011;847;48.058;7.810;2022-09-17T00:57:11;2.10;;;0.93;;
1699;SDS011;847;48.058;7.810;2022-09-17T00:59:38;4.90;;;1.13;;
1699;SDS011;847;48.058;7.810;2022-09-17T01:02:05;1.83;;;0.93;;
1699;SDS011;847;48.058;7.810;2022-09-17T01:04:33;1.53;;;0.73;;
1699;SDS011;847;48.058;7.810;2022-09-17T01:07:01;1.20;;;0.90;;
1699;SDS011;847;48.058;7.810;2022-09-17T01:09:36;1.80;;;0.73;;
1699;SDS011;847;48.058;7.810;2022-09-17T01:12:18;1.87;;;0.80;;
1699;SDS011;847;48.058;7.810;2022-09-17T01:14:59;1.87;;;1.00;;
1699;SDS011;847;48.058;7.810;2022-09-17T01:17:37;1.03;;;0.70;;
1699;SDS011;847;48.058;7.810;2022-09-17T01:26:16;1.80;;;0.70;;
1699;SDS011;847;48.058;7.810;2022-09-17T01:29:08;1.90;;;0.70;;
1699;SDS011;847;48.058;7.810;2022-09-17T01:31:46;1.67;;;0.70;;
1699;SDS011;847;48.058;7.810;2022-09-17T01:34:17;1.90;;;0.90;;
1699;SDS011;847;48.058;7.810;2022-09-17T01:36:54;1.23;;;0.70;;
1699;SDS011;847;48.058;7.810;2022-09-17T01:39:28;3.73;;;0.93;;
1699;SDS011;847;48.058;7.810;2022-09-17T01:42:03;1.63;;;0.70;;
1699;SDS011;847;48.058;7.810;2022-09-17T01:44:39;2.47;;;0.90;;
1699;SDS011;847;48.058;7.810;2022-09-17T01:47:14;2.57;;;1.20;;
1699;SDS011;847;48.058;7.810;2022-09-17T01:49:45;2.00;;;1.03;;
1699;SDS011;847;48.058;7.810;2022-09-17T01:52:13;1.03;;;0.93;;
1699;SDS011;847;48.058;7.810;2022-09-17T01:54:41;0.70;;;0.70;;
1699;SDS011;847;48.058;7.810;2022-09-17T01:57:13;1.17;;;0.70;;
1699;SDS011;847;48.058;7.810;2022-09-17T01:59:44;1.70;;;1.00;;
1699;SDS011;847;48.058;7.810;2022-09-17T02:02:15;0.80;;;0.80;;
1699;SDS011;847;48.058;7.810;2022-09-17T02:04:51;1.20;;;0.77;;
1699;SDS011;847;48.058;7.810;2022-09-17T02:07:22;2.83;;;0.80;;
1699;SDS011;847;48.058;7.810;2022-09-17T02:09:51;1.40;;;0.90;;
1699;SDS011;847;48.058;7.810;2022-09-17T02:12:24;3.50;;;0.73;;
1699;SDS011;847;48.058;7.810;2022-09-17T02:14:55;2.33;;;0.97;;
1699;SDS011;847;48.058;7.810;2022-09-17T02:17:28;1.00;;;0.80;;
1699;SDS011;847;48.058;7.810;2022-09-17T02:20:00;3.77;;;0.77;;
1699;SDS011;847;48.058;7.810;2022-09-17T02:22:29;0.97;;;0.87;;
1699;SDS011;847;48.058;7.810;2022-09-17T02:25:02;3.53;;;0.80;;
1699;SDS011;847;48.058;7.810;2022-09-17T02:27:36;2.30;;;0.70;;
1699;SDS011;847;48.058;7.810;2022-09-17T02:30:12;0.60;;;0.50;;
1699;SDS011;847;48.058;7.810;2022-09-17T02:32:40;1.00;;;0.90;;
1699;SDS011;847;48.058;7.810;2022-09-17T02:35:08;0.97;;;0.50;;
1699;SDS011;847;48.058;7.810;2022-09-17T02:37:35;1.00;;;0.70;;
1699;SDS011;847;48.058;7.810;2022-09-17T02:40:02;1.80;;;0.60;;
1699;SDS011;847;48.058;7.810;2022-09-17T02:42:31;3.77;;;0.70;;
1699;SDS011;847;48.058;7.810;2022-09-17T02:45:04;2.10;;;0.83;;
1699;SDS011;847;48.058;7.810;2022-09-17T02:47:45;1.00;;;0.70;;
1699;SDS011;847;48.058;7.810;2022-09-17T02:50:30;4.93;;;1.30;;
1699;SDS011;847;48.058;7.810;2022-09-17T02:53:10;1.90;;;0.90;;
1699;SDS011;847;48.058;7.810;2022-09-17T02:55:56;2.27;;;1.07;;
1699;SDS011;847;48.058;7.810;2022-09-17T02:58:28;1.77;;;0.80;;
1699;SDS011;847;48.058;7.810;2022-09-17T03:00:59;2.40;;;0.90;;
1699;SDS011;847;48.058;7.810;2022-09-17T03:03:32;1.90;;;0.80;;
1699;SDS011;847;48.058;7.810;2022-09-17T03:06:03;2.40;;;1.20;;
1699;SDS011;847;48.058;7.810;2022-09-17T03:08:31;0.73;;;0.63;;
1699;SDS011;847;48.058;7.810;2022-09-17T03:11:02;5.93;;;1.50;;
1699;SDS011;847;48.058;7.810;2022-09-17T03:13:29;2.60;;;1.00;;
1699;SDS011;847;48.058;7.810;2022-09-17T03:15:56;2.40;;;1.10;;
1699;SDS011;847;48.058;7.810;2022-09-17T03:18:23;3.77;;;1.40;;
1699;SDS011;847;48.058;7.810;2022-09-17T03:20:51;11.73;;;1.37;;
1699;SDS011;847;48.058;7.810;2022-09-17T03:23:18;1.57;;;0.80;;
1699;SDS011;847;48.058;7.810;2022-09-17T03:25:44;2.43;;;2.23;;
1699;SDS011;847;48.058;7.810;2022-09-17T03:28:13;5.47;;;1.30;;
1699;SDS011;847;48.058;7.810;2022-09-17T03:30:39;3.07;;;1.20;;
1699;SDS011;847;48.058;7.810;2022-09-17T03:33:07;2.30;;;1.17;;
1699;SDS011;847;48.058;7.810;2022-09-17T03:35:34;2.70;;;1.10;;
1699;SDS011;847;48.058;7.810;2022-09-17T03:38:02;2.50;;;0.90;;
1699;SDS011;847;48.058;7.810;2022-09-17T03:40:29;2.57;;;0.80;;
1699;SDS011;847;48.058;7.810;2022-09-17T03:42:56;1.53;;;0.87;;
1699;SDS011;847;48.058;7.810;2022-09-17T03:45:22;1.53;;;0.70;;
1699;SDS011;847;48.058;7.810;2022-09-17T03:47:49;2.77;;;0.90;;
1699;SDS011;847;48.058;7.810;2022-09-17T03:50:16;5.70;;;1.13;;
1699;SDS011;847;48.058;7.810;2022-09-17T03:52:43;3.30;;;1.17;;
1699;SDS011;847;48.058;7.810;2022-09-17T03:55:11;5.13;;;1.53;;
1699;SDS011;847;48.058;7.810;2022-09-17T03:57:37;2.83;;;1.00;;
1699;SDS011;847;48.058;7.810;2022-09-17T04:00:04;1.30;;;1.00;;
1699;SDS011;847;48.058;7.810;2022-09-17T04:02:32;1.57;;;0.90;;
1699;SDS011;847;48.058;7.810;2022-09-17T04:04:59;31.67;;;2.17;;
1699;SDS011;847;48.058;7.810;2022-09-17T04:07:25;5.07;;;1.10;;
1699;SDS011;847;48.058;7.810;2022-09-17T04:09:52;1.47;;;0.90;;
1699;SDS011;847;48.058;7.810;2022-09-17T04:12:20;1.73;;;0.97;;
1699;SDS011;847;48.058;7.810;2022-09-17T04:14:47;1.20;;;1.00;;
1699;SDS011;847;48.058;7.810;2022-09-17T04:17:13;2.40;;;0.70;;
1699;SDS011;847;48.058;7.810;2022-09-17T04:19:42;0.90;;;0.90;;
1699;SDS011;847;48.058;7.810;2022-09-17T04:22:08;1.80;;;1.10;;
1699;SDS011;847;48.058;7.810;2022-09-17T04:24:35;1.80;;;0.87;;
1699;SDS011;847;48.058;7.810;2022-09-17T04:27:02;3.27;;;1.00;;
1699;SDS011;847;48.058;7.810;2022-09-17T04:29:30;2.70;;;1.10;;
1699;SDS011;847;48.058;7.810;2022-09-17T04:31:57;3.50;;;1.27;;
1699;SDS011;847;48.058;7.810;2022-09-17T04:34:23;2.30;;;1.83;;
1699;SDS011;847;48.058;7.810;2022-09-17T04:36:50;3.20;;;1.30;;
1699;SDS011;847;48.058;7.810;2022-09-17T04:39:17;2.50;;;1.27;;
1699;SDS011;847;48.058;7.810;2022-09-17T04:41:44;1.20;;;1.07;;
1699;SDS011;847;48.058;7.810;2022-09-17T04:44:11;1.30;;;1.10;;
1699;SDS011;847;48.058;7.810;2022-09-17T04:46:40;1.67;;;1.20;;
1699;SDS011;847;48.058;7.810;2022-09-17T04:49:06;1.23;;;1.00;;
1699;SDS011;847;48.058;7.810;2022-09-17T04:51:33;1.80;;;1.20;;
1699;SDS011;847;48.058;7.810;2022-09-17T04:54:00;2.43;;;1.00;;
1699;SDS011;847;48.058;7.810;2022-09-17T04:56:27;2.03;;;1.03;;
1699;SDS011;847;48.058;7.810;2022-09-17T04:58:54;2.20;;;1.10;;
1699;SDS011;847;48.058;7.810;2022-09-17T05:01:20;3.20;;;0.97;;
1699;SDS011;847;48.058;7.810;2022-09-17T05:03:49;1.37;;;0.90;;
1699;SDS011;847;48.058;7.810;2022-09-17T05:06:15;1.67;;;1.30;;
1699;SDS011;847;48.058;7.810;2022-09-17T05:08:42;4.67;;;1.50;;
1699;SDS011;847;48.058;7.810;2022-09-17T05:11:09;2.83;;;1.00;;
1699;SDS011;847;48.058;7.810;2022-09-17T05:13:36;2.20;;;1.50;;
1699;SDS011;847;48.058;7.810;2022-09-17T05:16:03;4.23;;;1.30;;
1699;SDS011;847;48.058;7.810;2022-09-17T05:18:30;2.90;;;1.33;;
1699;SDS011;847;48.058;7.810;2022-09-17T05:20:58;4.00;;;1.67;;
1699;SDS011;847;48.058;7.810;2022-09-17T05:23:25;3.53;;;1.30;;
1699;SDS011;847;48.058;7.810;2022-09-17T05:25:52;3.03;;;1.20;;
1699;SDS011;847;48.058;7.810;2022-09-17T05:28:23;1.57;;;1.13;;
1699;SDS011;847;48.058;7.810;2022-09-17T05:30:50;2.00;;;1.20;;
1699;SDS011;847;48.058;7.810;2022-09-17T05:33:17;1.73;;;1.30;;
1699;SDS011;847;48.058;7.810;2022-09-17T05:35:44;3.40;;;1.30;;
1699;SDS011;847;48.058;7.810;2022-09-17T05:38:13;1.50;;;1.20;;
1699;SDS011;847;48.058;7.810;2022-09-17T05:40:39;2.87;;;1.60;;
1699;SDS011;847;48.058;7.810;2022-09-17T05:43:06;5.30;;;1.80;;
1699;SDS011;847;48.058;7.810;2022-09-17T05:45:34;3.03;;;1.47;;
1699;SDS011;847;48.058;7.810;2022-09-17T05:48:02;2.23;;;1.77;;
1699;SDS011;847;48.058;7.810;2022-09-17T05:50:30;3.10;;;1.77;;
1699;SDS011;847;48.058;7.810;2022-09-17T05:53:01;4.73;;;2.27;;
1699;SDS011;847;48.058;7.810;2022-09-17T05:55:31;3.20;;;1.63;;
1699;SDS011;847;48.058;7.810;2022-09-17T05:57:59;4.40;;;1.77;;
1699;SDS011;847;48.058;7.810;2022-09-17T06:00:26;4.13;;;1.53;;
1699;SDS011;847;48.058;7.810;2022-09-17T06:02:54;4.33;;;2.13;;
1699;SDS011;847;48.058;7.810;2022-09-17T06:05:21;1.70;;;1.50;;
1699;SDS011;847;48.058;7.810;2022-09-17T06:07:48;2.10;;;2.00;;
1699;SDS011;847;48.058;7.810;2022-09-17T06:10:15;3.63;;;1.80;;
1699;SDS011;847;48.058;7.810;2022-09-17T06:12:44;3.50;;;2.00;;
1699;SDS011;847;48.058;7.810;2022-09-17T06:15:10;2.93;;;2.10;;
1699;SDS011;847;48.058;7.810;2022-09-17T06:17:39;3.87;;;1.70;;
1699;SDS011;847;48.058;7.810;2022-09-17T06:20:07;3.93;;;1.93;;
1699;SDS011;847;48.058;7.810;2022-09-17T06:22:34;2.37;;;2.17;;
1699;SDS011;847;48.058;7.810;2022-09-17T06:25:01;2.80;;;1.57;;
1699;SDS011;847;48.058;7.810;2022-09-17T06:27:29;1.73;;;1.63;;
1699;SDS011;847;48.058;7.810;2022-09-17T06:29:58;2.10;;;1.90;;
1699;SDS011;847;48.058;7.810;2022-09-17T06:32:25;5.57;;;1.40;;
1699;SDS011;847;48.058;7.810;2022-09-17T06:34:53;1.40;;;1.30;;
1699;SDS011;847;48.058;7.810;2022-09-17T06:37:24;3.43;;;1.57;;
1699;SDS011;847;48.058;7.810;2022-09-17T06:39:53;1.90;;;1.57;;
1699;SDS011;847;48.058;7.810;2022-09-17T06:42:19;2.60;;;1.90;;
1699;SDS011;847;48.058;7.810;2022-09-17T06:44:46;2.23;;;2.03;;
1699;SDS011;847;48.058;7.810;2022-09-17T06:47:14;2.33;;;2.00;;
1699;SDS011;847;48.058;7.810;2022-09-17T06:49:41;5.50;;;2.20;;
1699;SDS011;847;48.058;7.810;2022-09-17T06:52:08;3.23;;;1.77;;
1699;SDS011;847;48.058;7.810;2022-09-17T06:54:35;3.30;;;2.70;;
1699;SDS011;847;48.058;7.810;2022-09-17T06:57:02;3.73;;;2.90;;
1699;SDS011;847;48.058;7.810;2022-09-17T06:59:29;2.43;;;2.23;;
1699;SDS011;847;48.058;7.810;2022-09-17T07:01:55;3.37;;;2.10;;
1699;SDS011;847;48.058;7.810;2022-09-17T07:04:24;1.70;;;1.60;;
1699;SDS011;847;48.058;7.810;2022-09-17T07:06:50;1.83;;;1.73;;
1699;SDS011;847;48.058;7.810;2022-09-17T07:09:17;3.07;;;2.17;;
1699;SDS011;847;48.058;7.810;2022-09-17T07:11:44;1.77;;;1.67;;
1699;SDS011;847;48.058;7.810;2022-09-17T07:14:10;2.90;;;2.20;;
1699;SDS011;847;48.058;7.810;2022-09-17T07:16:37;4.80;;;1.80;;
1699;SDS011;847;48.058;7.810;2022-09-17T07:19:04;2.23;;;1.90;;
1699;SDS011;847;48.058;7.810;2022-09-17T07:21:32;4.30;;;2.30;;
1699;SDS011;847;48.058;7.810;2022-09-17T07:23:59;3.37;;;2.03;;
1699;SDS011;847;48.058;7.810;2022-09-17T07:26:26;4.60;;;1.87;;
1699;SDS011;847;48.058;7.810;2022-09-17T07:28:53;2.40;;;1.87;;
1699;SDS011;847;48.058;7.810;2022-09-17T07:31:20;2.10;;;1.90;;
1699;SDS011;847;48.058;7.810;2022-09-17T07:33:47;2.83;;;1.80;;
1699;SDS011;847;48.058;7.810;2022-09-17T07:36:14;5.93;;;1.90;;
1699;SDS011;847;48.058;7.810;2022-09-17T07:38:44;2.53;;;1.70;;
1699;SDS011;847;48.058;7.810;2022-09-17T07:41:12;3.23;;;1.60;;
1699;SDS011;847;48.058;7.810;2022-09-17T07:43:40;2.50;;;1.60;;
1699;SDS011;847;48.058;7.810;2022-09-17T07:46:08;2.30;;;2.10;;
1699;SDS011;847;48.058;7.810;2022-09-17T07:48:38;2.40;;;1.87;;
1699;SDS011;847;48.058;7.810;2022-09-17T07:51:05;4.37;;;2.17;;
1699;SDS011;847;48.058;7.810;2022-09-17T07:53:31;2.40;;;1.87;;
1699;SDS011;847;48.058;7.810;2022-09-17T07:56:00;1.97;;;1.70;;
1699;SDS011;847;48.058;7.810;2022-09-17T07:58:27;4.00;;;2.80;;
1699;SDS011;847;48.058;7.810;2022-09-17T08:00:58;1.90;;;1.70;;
1699;SDS011;847;48.058;7.810;2022-09-17T08:03:26;2.37;;;1.73;;
1699;SDS011;847;48.058;7.810;2022-09-17T08:05:53;3.47;;;1.90;;
1699;SDS011;847;48.058;7.810;2022-09-17T08:08:27;2.97;;;1.80;;
1699;SDS011;847;48.058;7.810;2022-09-17T08:10:54;1.80;;;1.70;;
1699;SDS011;847;48.058;7.810;2022-09-17T08:13:27;5.93;;;1.90;;
1699;SDS011;847;48.058;7.810;2022-09-17T08:15:56;2.23;;;1.10;;
1699;SDS011;847;48.058;7.810;2022-09-17T08:18:24;2.23;;;1.13;;
1699;SDS011;847;48.058;7.810;2022-09-17T08:20:51;2.30;;;1.10;;
1699;SDS011;847;48.058;7.810;2022-09-17T08:23:21;1.30;;;1.13;;
1699;SDS011;847;48.058;7.810;2022-09-17T08:25:50;2.03;;;1.50;;
1699;SDS011;847;48.058;7.810;2022-09-17T08:28:19;10.70;;;1.60;;
1699;SDS011;847;48.058;7.810;2022-09-17T08:30:46;2.13;;;1.50;;
1699;SDS011;847;48.058;7.810;2022-09-17T08:33:14;3.23;;;1.40;;
1699;SDS011;847;48.058;7.810;2022-09-17T08:35:41;4.87;;;1.80;;
1699;SDS011;847;48.058;7.810;2022-09-17T08:38:08;3.53;;;1.83;;
1699;SDS011;847;48.058;7.810;2022-09-17T08:40:35;3.50;;;1.87;;
1699;SDS011;847;48.058;7.810;2022-09-17T08:43:10;2.23;;;1.30;;
1699;SDS011;847;48.058;7.810;2022-09-17T08:45:44;3.43;;;1.30;;
1699;SDS011;847;48.058;7.810;2022-09-17T08:48:17;2.13;;;1.20;;
1699;SDS011;847;48.058;7.810;2022-09-17T08:50:44;2.43;;;1.60;;
1699;SDS011;847;48.058;7.810;2022-09-17T08:53:13;3.33;;;1.50;;
1699;SDS011;847;48.058;7.810;2022-09-17T08:55:50;2.70;;;1.20;;
1699;SDS011;847;48.058;7.810;2022-09-17T08:58:29;2.33;;;1.30;;
1699;SDS011;847;48.058;7.810;2022-09-17T09:01:21;3.30;;;1.63;;
1699;SDS011;847;48.058;7.810;2022-09-17T09:04:04;4.20;;;1.60;;
1699;SDS011;847;48.058;7.810;2022-09-17T09:06:49;2.43;;;1.23;;
1699;SDS011;847;48.058;7.810;2022-09-17T09:09:20;5.17;;;1.10;;
1699;SDS011;847;48.058;7.810;2022-09-17T09:11:51;2.90;;;1.40;;
1699;SDS011;847;48.058;7.810;2022-09-17T09:14:26;2.80;;;1.27;;
1699;SDS011;847;48.058;7.810;2022-09-17T09:16:58;1.30;;;1.20;;
1699;SDS011;847;48.058;7.810;2022-09-17T09:19:31;2.70;;;1.10;;
1699;SDS011;847;48.058;7.810;2022-09-17T09:22:05;3.23;;;1.03;;
1699;SDS011;847;48.058;7.810;2022-09-17T09:24:40;2.93;;;1.40;;
1699;SDS011;847;48.058;7.810;2022-09-17T09:27:14;2.87;;;1.90;;
1699;SDS011;847;48.058;7.810;2022-09-17T09:29:45;2.43;;;1.60;;
1699;SDS011;847;48.058;7.810;2022-09-17T09:32:26;4.37;;;1.50;;
1699;SDS011;847;48.058;7.810;2022-09-17T09:35:10;6.50;;;1.87;;
1699;SDS011;847;48.058;7.810;2022-09-17T09:37:41;3.90;;;1.77;;
1699;SDS011;847;48.058;7.810;2022-09-17T09:40:18;2.70;;;1.20;;
1699;SDS011;847;48.058;7.810;2022-09-17T09:42:52;3.23;;;1.57;;
1699;SDS011;847;48.058;7.810;2022-09-17T09:45:25;4.30;;;1.60;;
1699;SDS011;847;48.058;7.810;2022-09-17T09:48:02;3.23;;;1.50;;
1699;SDS011;847;48.058;7.810;2022-09-17T09:50:40;2.37;;;1.70;;
1699;SDS011;847;48.058;7.810;2022-09-17T09:53:15;3.43;;;1.60;;
1699;SDS011;847;48.058;7.810;2022-09-17T09:55:57;3.37;;;1.70;;
1699;SDS011;847;48.058;7.810;2022-09-17T09:58:30;3.23;;;2.10;;
1699;SDS011;847;48.058;7.810;2022-09-17T10:01:00;1.90;;;1.43;;
1699;SDS011;847;48.058;7.810;2022-09-17T10:03:29;4.00;;;1.87;;
1699;SDS011;847;48.058;7.810;2022-09-17T10:05:58;7.30;;;2.00;;
1699;SDS011;847;48.058;7.810;2022-09-17T10:08:27;3.40;;;1.60;;
1699;SDS011;847;48.058;7.810;2022-09-17T10:10:58;4.80;;;1.80;;
1699;SDS011;847;48.058;7.810;2022-09-17T10:13:27;2.03;;;1.30;;
1699;SDS011;847;48.058;7.810;2022-09-17T10:15:55;2.70;;;1.10;;
1699;SDS011;847;48.058;7.810;2022-09-17T10:18:23;2.40;;;1.53;;
1699;SDS011;847;48.058;7.810;2022-09-17T10:20:58;2.67;;;1.37;;
1699;SDS011;847;48.058;7.810;2022-09-17T10:23:26;1.80;;;1.53;;
1699;SDS011;847;48.058;7.810;2022-09-17T10:25:55;3.13;;;1.80;;
1699;SDS011;847;48.058;7.810;2022-09-17T10:28:30;2.30;;;2.10;;
1699;SDS011;847;48.058;7.810;2022-09-17T10:31:01;2.30;;;1.20;;
1699;SDS011;847;48.058;7.810;2022-09-17T10:33:34;3.10;;;1.50;;
1699;SDS011;847;48.058;7.810;2022-09-17T10:36:05;2.10;;;1.40;;
1699;SDS011;847;48.058;7.810;2022-09-17T10:38:35;1.70;;;1.30;;
1699;SDS011;847;48.058;7.810;2022-09-17T10:41:13;1.57;;;1.20;;
1699;SDS011;847;48.058;7.810;2022-09-17T10:43:42;4.80;;;1.77;;
1699;SDS011;847;48.058;7.810;2022-09-17T10:46:10;3.30;;;1.40;;
1699;SDS011;847;48.058;7.810;2022-09-17T10:48:44;3.33;;;1.43;;
1699;SDS011;847;48.058;7.810;2022-09-17T10:51:22;1.60;;;1.33;;
1699;SDS011;847;48.058;7.810;2022-09-17T10:54:04;5.27;;;1.60;;
1699;SDS011;847;48.058;7.810;2022-09-17T10:57:00;3.00;;;1.30;;
1699;SDS011;847;48.058;7.810;2022-09-17T11:02:54;3.37;;;1.30;;
1699;SDS011;847;48.058;7.810;2022-09-17T11:05:53;2.30;;;1.10;;
1699;SDS011;847;48.058;7.810;2022-09-17T11:08:35;6.70;;;1.43;;
1699;SDS011;847;48.058;7.810;2022-09-17T11:11:09;1.83;;;1.17;;
1699;SDS011;847;48.058;7.810;2022-09-17T11:13:38;1.73;;;1.03;;
1699;SDS011;847;48.058;7.810;2022-09-17T11:16:16;1.77;;;1.10;;
1699;SDS011;847;48.058;7.810;2022-09-17T11:18:49;3.47;;;1.13;;
1699;SDS011;847;48.058;7.810;2022-09-17T11:21:28;3.07;;;1.00;;
1699;SDS011;847;48.058;7.810;2022-09-17T11:24:25;1.70;;;0.90;;
1699;SDS011;847;48.058;7.810;2022-09-17T11:27:16;1.80;;;1.10;;
1699;SDS011;847;48.058;7.810;2022-09-17T11:32:58;1.60;;;1.07;;
1699;SDS011;847;48.058;7.810;2022-09-17T11:35:54;3.80;;;1.33;;
1699;SDS011;847;48.058;7.810;2022-09-17T11:38:26;2.40;;;1.20;;
1699;SDS011;847;48.058;7.810;2022-09-17T11:41:05;1.10;;;0.80;;
1699;SDS011;847;48.058;7.810;2022-09-17T11:43:36;1.33;;;1.10;;
1699;SDS011;847;48.058;7.810;2022-09-17T11:46:08;3.77;;;1.13;;
1699;SDS011;847;48.058;7.810;2022-09-17T11:48:41;2.37;;;1.30;;
1699;SDS011;847;48.058;7.810;2022-09-17T11:51:14;2.90;;;1.27;;
1699;SDS011;847;48.058;7.810;2022-09-17T11:53:48;2.63;;;1.50;;
1699;SDS011;847;48.058;7.810;2022-09-17T11:56:22;1.33;;;0.97;;
1699;SDS011;847;48.058;7.810;2022-09-17T11:58:54;3.30;;;1.70;;
1699;SDS011;847;48.058;7.810;2022-09-17T12:01:29;2.63;;;1.67;;
1699;SDS011;847;48.058;7.810;2022-09-17T12:04:01;1.70;;;0.83;;
1699;SDS011;847;48.058;7.810;2022-09-17T12:06:42;1.63;;;1.20;;
1699;SDS011;847;48.058;7.810;2022-09-17T12:09:12;1.73;;;1.10;;
1699;SDS011;847;48.058;7.810;2022-09-17T12:11:44;2.40;;;1.20;;
1699;SDS011;847;48.058;7.810;2022-09-17T12:14:17;1.20;;;1.00;;
1699;SDS011;847;48.058;7.810;2022-09-17T12:16:48;1.20;;;1.10;;
1699;SDS011;847;48.058;7.810;2022-09-17T12:19:19;2.83;;;1.50;;
1699;SDS011;847;48.058;7.810;2022-09-17T12:21:50;2.90;;;1.33;;
1699;SDS011;847;48.058;7.810;2022-09-17T12:24:21;2.73;;;1.10;;
1699;SDS011;847;48.058;7.810;2022-09-17T12:27:08;2.50;;;1.30;;
1699;SDS011;847;48.058;7.810;2022-09-17T12:32:40;1.73;;;1.00;;
1699;SDS011;847;48.058;7.810;2022-09-17T12:35:16;1.33;;;0.80;;
1699;SDS011;847;48.058;7.810;2022-09-17T12:37:59;1.80;;;0.83;;
1699;SDS011;847;48.058;7.810;2022-09-17T12:40:36;0.70;;;0.70;;
1699;SDS011;847;48.058;7.810;2022-09-17T12:43:16;1.13;;;0.80;;
1699;SDS011;847;48.058;7.810;2022-09-17T12:46:05;1.00;;;0.90;;
1699;SDS011;847;48.058;7.810;2022-09-17T12:48:43;0.93;;;0.80;;
1699;SDS011;847;48.058;7.810;2022-09-17T12:51:44;1.37;;;0.90;;
1699;SDS011;847;48.058;7.810;2022-09-17T12:54:22;3.43;;;1.03;;
1699;SDS011;847;48.058;7.810;2022-09-17T12:57:09;1.43;;;1.10;;
1699;SDS011;847;48.058;7.810;2022-09-17T12:59:49;2.00;;;1.60;;
1699;SDS011;847;48.058;7.810;2022-09-17T13:02:21;1.60;;;1.10;;
1699;SDS011;847;48.058;7.810;2022-09-17T13:07:56;1.30;;;1.20;;
1699;SDS011;847;48.058;7.810;2022-09-17T13:10:46;3.10;;;1.20;;
1699;SDS011;847;48.058;7.810;2022-09-17T13:13:32;3.03;;;1.50;;
1699;SDS011;847;48.058;7.810;2022-09-17T13:16:09;2.30;;;1.10;;
1699;SDS011;847;48.058;7.810;2022-09-17T13:18:41;3.00;;;1.33;;
1699;SDS011;847;48.058;7.810;2022-09-17T13:21:14;2.23;;;1.00;;
1699;SDS011;847;48.058;7.810;2022-09-17T13:23:45;1.60;;;1.13;;
1699;SDS011;847;48.058;7.810;2022-09-17T13:26:16;1.23;;;0.90;;
1699;SDS011;847;48.058;7.810;2022-09-17T13:28:45;1.93;;;1.20;;
1699;SDS011;847;48.058;7.810;2022-09-17T13:31:19;3.27;;;1.27;;
1699;SDS011;847;48.058;7.810;2022-09-17T13:33:50;1.37;;;1.00;;
1699;SDS011;847;48.058;7.810;2022-09-17T13:36:34;1.10;;;1.00;;
1699;SDS011;847;48.058;7.810;2022-09-17T13:39:04;2.00;;;1.00;;
1699;SDS011;847;48.058;7.810;2022-09-17T13:41:33;1.30;;;0.80;;
1699;SDS011;847;48.058;7.810;2022-09-17T13:44:02;1.90;;;0.90;;
1699;SDS011;847;48.058;7.810;2022-09-17T13:46:31;2.23;;;1.10;;
1699;SDS011;847;48.058;7.810;2022-09-17T13:49:00;3.07;;;0.80;;
1699;SDS011;847;48.058;7.810;2022-09-17T13:51:45;3.20;;;1.03;;
1699;SDS011;847;48.058;7.810;2022-09-17T13:54:17;1.10;;;0.90;;
1699;SDS011;847;48.058;7.810;2022-09-17T13:56:47;2.13;;;1.40;;
1699;SDS011;847;48.058;7.810;2022-09-17T13:59:33;3.87;;;0.83;;
1699;SDS011;847;48.058;7.810;2022-09-17T14:02:10;5.30;;;0.97;;
1699;SDS011;847;48.058;7.810;2022-09-17T14:04:54;2.40;;;1.27;;
1699;SDS011;847;48.058;7.810;2022-09-17T14:07:44;1.40;;;1.00;;
1699;SDS011;847;48.058;7.810;2022-09-17T14:10:30;2.80;;;0.80;;
1699;SDS011;847;48.058;7.810;2022-09-17T14:15:57;0.73;;;0.73;;
1699;SDS011;847;48.058;7.810;2022-09-17T14:18:34;4.23;;;0.90;;
1699;SDS011;847;48.058;7.810;2022-09-17T14:21:10;2.13;;;0.80;;
1699;SDS011;847;48.058;7.810;2022-09-17T14:23:41;2.40;;;0.80;;
1699;SDS011;847;48.058;7.810;2022-09-17T14:26:11;3.27;;;1.00;;
1699;SDS011;847;48.058;7.810;2022-09-17T14:28:46;1.27;;;0.83;;
1699;SDS011;847;48.058;7.810;2022-09-17T14:31:19;3.83;;;1.47;;
1699;SDS011;847;48.058;7.810;2022-09-17T14:33:51;4.17;;;1.00;;
1699;SDS011;847;48.058;7.810;2022-09-17T14:36:19;2.30;;;0.90;;
1699;SDS011;847;48.058;7.810;2022-09-17T14:38:48;3.20;;;1.13;;
1699;SDS011;847;48.058;7.810;2022-09-17T14:41:18;1.83;;;1.07;;
1699;SDS011;847;48.058;7.810;2022-09-17T14:43:49;1.87;;;0.80;;
1699;SDS011;847;48.058;7.810;2022-09-17T14:46:19;1.50;;;0.87;;
1699;SDS011;847;48.058;7.810;2022-09-17T14:48:48;2.30;;;1.00;;
1699;SDS011;847;48.058;7.810;2022-09-17T14:51:25;2.40;;;1.10;;
1699;SDS011;847;48.058;7.810;2022-09-17T14:54:06;1.20;;;0.77;;
1699;SDS011;847;48.058;7.810;2022-09-17T14:56:43;1.43;;;0.87;;
1699;SDS011;847;48.058;7.810;2022-09-17T14:59:23;2.93;;;0.70;;
1699;SDS011;847;48.058;7.810;2022-09-17T15:01:59;0.80;;;0.80;;
1699;SDS011;847;48.058;7.810;2022-09-17T15:04:26;0.87;;;0.70;;
1699;SDS011;847;48.058;7.810;2022-09-17T15:07:06;1.00;;;0.57;;
1699;SDS011;847;48.058;7.810;2022-09-17T15:09:34;1.40;;;0.70;;
1699;SDS011;847;48.058;7.810;2022-09-17T15:12:01;3.30;;;0.80;;
1699;SDS011;847;48.058;7.810;2022-09-17T15:14:31;3.40;;;1.03;;
1699;SDS011;847;48.058;7.810;2022-09-17T15:17:00;1.03;;;0.50;;
1699;SDS011;847;48.058;7.810;2022-09-17T15:19:30;20.50;;;1.87;;
1699;SDS011;847;48.058;7.810;2022-09-17T15:22:01;1.30;;;0.60;;
1699;SDS011;847;48.058;7.810;2022-09-17T15:24:35;2.30;;;0.90;;
1699;SDS011;847;48.058;7.810;2022-09-17T15:27:08;1.17;;;0.50;;
1699;SDS011;847;48.058;7.810;2022-09-17T15:29:39;1.20;;;0.60;;
1699;SDS011;847;48.058;7.810;2022-09-17T15:32:10;1.50;;;0.73;;
1699;SDS011;847;48.058;7.810;2022-09-17T15:34:38;1.13;;;0.50;;
1699;SDS011;847;48.058;7.810;2022-09-17T15:37:06;0.70;;;0.60;;
1699;SDS011;847;48.058;7.810;2022-09-17T15:39:46;1.67;;;1.03;;
1699;SDS011;847;48.058;7.810;2022-09-17T15:42:19;1.77;;;0.63;;
1699;SDS011;847;48.058;7.810;2022-09-17T15:44:47;3.43;;;0.70;;
1699;SDS011;847;48.058;7.810;2022-09-17T15:47:33;1.70;;;1.17;;
1699;SDS011;847;48.058;7.810;2022-09-17T15:50:16;3.53;;;1.10;;
1699;SDS011;847;48.058;7.810;2022-09-17T15:52:45;2.87;;;0.80;;
1699;SDS011;847;48.058;7.810;2022-09-17T15:58:00;2.60;;;0.77;;
1699;SDS011;847;48.058;7.810;2022-09-17T16:00:29;2.77;;;0.80;;
1699;SDS011;847;48.058;7.810;2022-09-17T16:02:56;3.97;;;0.70;;
1699;SDS011;847;48.058;7.810;2022-09-17T16:08:18;2.30;;;0.80;;
1699;SDS011;847;48.058;7.810;2022-09-17T16:10:48;2.10;;;0.90;;
1699;SDS011;847;48.058;7.810;2022-09-17T16:13:15;6.97;;;1.60;;
1699;SDS011;847;48.058;7.810;2022-09-17T16:15:41;3.30;;;1.50;;
1699;SDS011;847;48.058;7.810;2022-09-17T16:18:12;1.50;;;1.13;;
1699;SDS011;847;48.058;7.810;2022-09-17T16:20:39;1.30;;;0.60;;
1699;SDS011;847;48.058;7.810;2022-09-17T16:23:06;2.10;;;1.00;;
1699;SDS011;847;48.058;7.810;2022-09-17T16:25:33;2.30;;;0.90;;